1874 NOT_NAMED (1874080S13072)


IBTrACS version v04r00. Visit IBTrACS website for data access.
Please direct all questions to the IBTrACS Q and A forum

Storm track - Intensity - Wind Radii - Intensity Data - Source Data - All data

Summary Information

Storm ID 1874080S13072
Start Mar 21 06Z
End Mar 30 06Z
ATCF IDs
Track status Best track data.
Spur track This storm is a spur track associated with the main storm: 1874080S13073

Storm track plot

Map of storm track

Intensity plots

No Intensity information for this storm


Radial wind information

No radial wind information for this storm


Position and Intensity Table

BASIN ISO_TIME_________ NATURE LAT LON
degrees north degrees east
SI 1874-03-21 06:00:00 NR -13.40 72.10
SI 09:00:00 NR -13.51 71.36
SI 12:00:00 NR -13.61 70.64
SI 15:00:00 NR -13.71 69.95
SI 18:00:00 NR -13.80 69.30
SI 21:00:00 NR -13.89 68.71
SI 1874-03-22 00:00:00 NR -13.98 68.16
SI 03:00:00 NR -14.08 67.63
SI 06:00:00 NR -14.20 67.10
SI 09:00:00 NR -14.34 66.53
SI 12:00:00 NR -14.50 65.96
SI 15:00:00 NR -14.66 65.38
SI 18:00:00 NR -14.80 64.80
SI 21:00:00 NR -14.91 64.21
SI 1874-03-23 00:00:00 NR -15.00 63.62
SI 03:00:00 NR -15.09 63.05
SI 06:00:00 NR -15.20 62.50
SI 09:00:00 NR -15.34 61.98
SI 12:00:00 NR -15.49 61.49
SI 15:00:00 NR -15.65 61.03
SI 18:00:00 NR -15.80 60.60
SI 21:00:00 NR -15.93 60.16
SI 1874-03-24 00:00:00 NR -16.06 59.75
SI 03:00:00 NR -16.18 59.39
SI 06:00:00 NR -16.30 59.10
SI 09:00:00 NR -16.43 58.88
SI 12:00:00 NR -16.56 58.72
SI 15:00:00 NR -16.68 58.60
SI 18:00:00 NR -16.80 58.50
SI 21:00:00 NR -16.88 58.40
SI 1874-03-25 00:00:00 NR -16.96 58.31
SI 03:00:00 NR -17.06 58.22
SI 06:00:00 NR -17.20 58.10
SI 09:00:00 NR -17.42 57.91
SI 12:00:00 NR -17.67 57.69
SI 15:00:00 NR -17.94 57.48
SI 18:00:00 NR -18.20 57.30
SI 21:00:00 NR -18.42 57.18
SI 1874-03-26 00:00:00 NR -18.63 57.10
SI 03:00:00 NR -18.82 57.05
SI 06:00:00 NR -19.00 57.00
SI 09:00:00 NR -19.16 56.93
SI 12:00:00 NR -19.30 56.88
SI 15:00:00 NR -19.44 56.83
SI 18:00:00 NR -19.60 56.80
SI 21:00:00 NR -19.78 56.79
SI 1874-03-27 00:00:00 NR -19.98 56.78
SI 03:00:00 NR -20.18 56.79
SI 06:00:00 NR -20.40 56.80
SI 09:00:00 NR -20.62 56.79
SI 12:00:00 NR -20.84 56.78
SI 15:00:00 NR -21.07 56.78
SI 18:00:00 NR -21.30 56.80
SI 21:00:00 NR -21.51 56.83
SI 1874-03-28 00:00:00 NR -21.73 56.89
SI 03:00:00 NR -21.95 56.98
SI 06:00:00 NR -22.20 57.10
SI 09:00:00 NR -22.48 57.26
SI 12:00:00 NR -22.78 57.46
SI 15:00:00 NR -23.09 57.68
SI 18:00:00 NR -23.40 57.90
SI 21:00:00 NR -23.68 58.08
SI 1874-03-29 00:00:00 NR -23.96 58.26
SI 03:00:00 NR -24.26 58.47
SI 06:00:00 NR -24.60 58.70
SI 09:00:00 NR -24.99 58.99
SI 12:00:00 NR -25.42 59.32
SI 15:00:00 NR -25.86 59.66
SI 18:00:00 NR -26.30 60.00
SI 21:00:00 NR -26.72 60.32
SI 1874-03-30 00:00:00 NR -27.12 60.62
SI 03:00:00 NR -27.51 60.91
SI 06:00:00 NR -27.90 61.20

Source Information

Agency Information
USA
TOKYO
CMA
HKO
NEWDELHI
REUNION
BOM
NADI
WELLINGTON
DS824
TD9636 cons_worldwide_trop_cyclone_18710101-19891231-005:Line=1416
TD9635
NEUMANN
MLC

All available IBTrACS Data

SEASON BASIN SUBBASIN ISO_TIME_________ NATURE LAT LON DIST2LAND LANDFALL IFLAG USA SSHS TD9636 LAT TD9636 LON TD9636 STAGE STORM SPEED STORM DIR
Year degrees north degrees east km km 1 degrees north degrees east kts degrees
1874 SI MM 1874-03-21 06:00:00 NR -13.40 72.10 1705 1633 __________O___ -1 -13.40 72.10 7 15 262
1874 SI MM 09:00:00 NR -13.51 71.36 1633 1562 __________P___ -1 -13.51 71.36 7 14 262
1874 SI MM 12:00:00 NR -13.61 70.64 1552 1491 __________P___ -1 -13.61 70.64 7 14 262
1874 SI MM 15:00:00 NR -13.71 69.95 1481 1420 __________P___ -1 -13.71 69.95 7 13 262
1874 SI MM 18:00:00 NR -13.80 69.30 1420 1359 __________O___ -1 -13.80 69.30 7 12 261
1874 SI MM 21:00:00 NR -13.89 68.71 1359 1307 __________P___ -1 -13.89 68.71 7 11 261
1874 SI MM 1874-03-22 00:00:00 NR -13.98 68.16 1307 1256 __________P___ -1 -13.98 68.16 7 11 260
1874 SI MM 03:00:00 NR -14.08 67.63 1247 1196 __________P___ -1 -14.08 67.63 7 11 258
1874 SI MM 06:00:00 NR -14.20 67.10 1196 1146 __________O___ -1 -14.20 67.10 7 11 256
1874 SI MM 09:00:00 NR -14.34 66.53 1137 1080 __________P___ -1 -14.34 66.53 7 11 255
1874 SI MM 12:00:00 NR -14.50 65.96 1080 1022 __________P___ -1 -14.50 65.96 7 12 254
1874 SI MM 15:00:00 NR -14.66 65.38 1015 958 __________P___ -1 -14.66 65.38 7 12 255
1874 SI MM 18:00:00 NR -14.80 64.80 958 901 __________O___ -1 -14.80 64.80 7 12 258
1874 SI MM 21:00:00 NR -14.91 64.21 901 854 __________P___ -1 -14.91 64.21 7 12 260
1874 SI MM 1874-03-23 00:00:00 NR -15.00 63.62 846 800 __________P___ -1 -15.00 63.62 7 11 261
1874 SI MM 03:00:00 NR -15.09 63.05 792 747 __________P___ -1 -15.09 63.05 7 11 260
1874 SI MM 06:00:00 NR -15.20 62.50 747 704 __________O___ -1 -15.20 62.50 7 11 257
1874 SI MM 09:00:00 NR -15.34 61.98 704 653 __________P___ -1 -15.34 61.98 7 10 253
1874 SI MM 12:00:00 NR -15.49 61.49 653 618 __________P___ -1 -15.49 61.49 7 10 251
1874 SI MM 15:00:00 NR -15.65 61.03 612 570 __________P___ -1 -15.65 61.03 7 9 250
1874 SI MM 18:00:00 NR -15.80 60.60 570 539 __________O___ -1 -15.80 60.60 7 9 251
1874 SI MM 21:00:00 NR -15.93 60.16 539 499 __________P___ -1 -15.93 60.16 7 9 252
1874 SI MM 1874-03-24 00:00:00 NR -16.06 59.75 499 471 __________P___ -1 -16.06 59.75 7 8 251
1874 SI MM 03:00:00 NR -16.18 59.39 471 450 __________P___ -1 -16.18 59.39 7 7 249
1874 SI MM 06:00:00 NR -16.30 59.10 450 432 __________O___ -1 -16.30 59.10 7 6 243
1874 SI MM 09:00:00 NR -16.43 58.88 432 405 __________P___ -1 -16.43 58.88 7 4 235
1874 SI MM 12:00:00 NR -16.56 58.72 405 392 __________P___ -1 -16.56 58.72 7 4 226
1874 SI MM 15:00:00 NR -16.68 58.60 392 378 __________P___ -1 -16.68 58.60 7 3 221
1874 SI MM 18:00:00 NR -16.80 58.50 378 365 __________O___ -1 -16.80 58.50 7 3 224
1874 SI MM 21:00:00 NR -16.88 58.40 365 352 __________P___ -1 -16.88 58.40 7 2 228
1874 SI MM 1874-03-25 00:00:00 NR -16.96 58.31 352 339 __________P___ -1 -16.96 58.31 7 2 224
1874 SI MM 03:00:00 NR -17.06 58.22 339 327 __________P___ -1 -17.06 58.22 7 3 221
1874 SI MM 06:00:00 NR -17.20 58.10 327 302 __________O___ -1 -17.20 58.10 7 5 220
1874 SI MM 09:00:00 NR -17.42 57.91 302 268 __________P___ -1 -17.42 57.91 7 6 219
1874 SI MM 12:00:00 NR -17.67 57.69 268 246 __________P___ -1 -17.67 57.69 7 7 218
1874 SI MM 15:00:00 NR -17.94 57.48 246 213 __________P___ -1 -17.94 57.48 7 7 215
1874 SI MM 18:00:00 NR -18.20 57.30 213 192 __________O___ -1 -18.20 57.30 7 6 210
1874 SI MM 21:00:00 NR -18.42 57.18 192 172 __________P___ -1 -18.42 57.18 7 5 203
1874 SI MM 1874-03-26 00:00:00 NR -18.63 57.10 172 151 __________P___ -1 -18.63 57.10 7 4 198
1874 SI MM 03:00:00 NR -18.82 57.05 154 133 __________P___ -1 -18.82 57.05 7 4 195
1874 SI MM 06:00:00 NR -19.00 57.00 133 123 __________O___ -1 -19.00 57.00 7 4 197
1874 SI MM 09:00:00 NR -19.16 56.93 118 109 __________P___ -1 -19.16 56.93 7 3 201
1874 SI MM 12:00:00 NR -19.30 56.88 109 100 __________P___ -1 -19.30 56.88 7 3 199
1874 SI MM 15:00:00 NR -19.44 56.83 107 92 __________P___ -1 -19.44 56.83 7 3 192
1874 SI MM 18:00:00 NR -19.60 56.80 92 80 __________O___ -1 -19.60 56.80 7 3 187
1874 SI MM 21:00:00 NR -19.78 56.79 80 71 __________P___ -1 -19.78 56.79 7 4 0
1874 SI MM 1874-03-27 00:00:00 NR -19.98 56.78 71 61 __________P___ -1 -19.98 56.78 7 4 178
1874 SI MM 03:00:00 NR -20.18 56.79 61 53 __________P___ -1 -20.18 56.79 7 4 0
1874 SI MM 06:00:00 NR -20.40 56.80 53 52 __________O___ -1 -20.40 56.80 7 4 182
1874 SI MM 09:00:00 NR -20.62 56.79 53 53 __________P___ -1 -20.62 56.79 7 4 0
1874 SI MM 12:00:00 NR -20.84 56.78 61 61 __________P___ -1 -20.84 56.78 7 5 0
1874 SI MM 15:00:00 NR -21.07 56.78 84 84 __________P___ -1 -21.07 56.78 7 5 177
1874 SI MM 18:00:00 NR -21.30 56.80 103 103 __________O___ -1 -21.30 56.80 7 4 172
1874 SI MM 21:00:00 NR -21.51 56.83 105 105 __________P___ -1 -21.51 56.83 7 4 168
1874 SI MM 1874-03-28 00:00:00 NR -21.73 56.89 122 122 __________P___ -1 -21.73 56.89 7 5 163
1874 SI MM 03:00:00 NR -21.95 56.98 146 146 __________P___ -1 -21.95 56.98 7 5 158
1874 SI MM 06:00:00 NR -22.20 57.10 167 167 __________O___ -1 -22.20 57.10 7 6 153
1874 SI MM 09:00:00 NR -22.48 57.26 204 204 __________P___ -1 -22.48 57.26 7 7 150
1874 SI MM 12:00:00 NR -22.78 57.46 242 242 __________P___ -1 -22.78 57.46 7 7 148
1874 SI MM 15:00:00 NR -23.09 57.68 280 280 __________P___ -1 -23.09 57.68 7 7 147
1874 SI MM 18:00:00 NR -23.40 57.90 318 318 __________O___ -1 -23.40 57.90 7 7 148
1874 SI MM 21:00:00 NR -23.68 58.08 357 357 __________P___ -1 -23.68 58.08 7 7 149
1874 SI MM 1874-03-29 00:00:00 NR -23.96 58.26 396 396 __________P___ -1 -23.96 58.26 7 7 149
1874 SI MM 03:00:00 NR -24.26 58.47 432 432 __________P___ -1 -24.26 58.47 7 8 148
1874 SI MM 06:00:00 NR -24.60 58.70 469 469 __________O___ -1 -24.60 58.70 7 9 147
1874 SI MM 09:00:00 NR -24.99 58.99 520 520 __________P___ -1 -24.99 58.99 7 10 146
1874 SI MM 12:00:00 NR -25.42 59.32 571 571 __________P___ -1 -25.42 59.32 7 11 145
1874 SI MM 15:00:00 NR -25.86 59.66 637 637 __________P___ -1 -25.86 59.66 7 11 145
1874 SI MM 18:00:00 NR -26.30 60.00 689 689 __________O___ -1 -26.30 60.00 7 10 145
1874 SI MM 21:00:00 NR -26.72 60.32 741 741 __________P___ -1 -26.72 60.32 7 10 146
1874 SI MM 1874-03-30 00:00:00 NR -27.12 60.62 794 794 __________P___ -1 -27.12 60.62 7 10 146
1874 SI MM 03:00:00 NR -27.51 60.91 846 846 __________P___ -1 -27.51 60.91 7 9 147
1874 SI MM 06:00:00 NR -27.90 61.20 899 __________O___ -1 -27.90 61.20 7 9 147